sensor_id;sensor_type;location;lat;lon;timestamp;pressure;altitude;pressure_sealevel;temperature;humidity
26635;BME280;14490;54.208;37.686;2022-08-19T00:00:40;99568.28;;;20.63;96.73
26635;BME280;14490;54.208;37.686;2022-08-19T00:03:09;99566.38;;;20.64;97.01
26635;BME280;14490;54.208;37.686;2022-08-19T00:05:37;99557.63;;;20.54;97.39
26635;BME280;14490;54.208;37.686;2022-08-19T00:08:06;99547.59;;;20.46;96.83
26635;BME280;14490;54.208;37.686;2022-08-19T00:10:33;99583.25;;;20.67;96.71
26635;BME280;14490;54.208;37.686;2022-08-19T00:13:01;99587.22;;;20.65;97.07
26635;BME280;14490;54.208;37.686;2022-08-19T00:15:30;99585.72;;;20.62;97.57
26635;BME280;14490;54.208;37.686;2022-08-19T00:17:57;99574.56;;;20.49;98.01
26635;BME280;14490;54.208;37.686;2022-08-19T00:20:27;99596.38;;;20.57;98.33
26635;BME280;14490;54.208;37.686;2022-08-19T00:22:54;99539.13;;;20.18;98.66
26635;BME280;14490;54.208;37.686;2022-08-19T00:25:23;99598.31;;;20.49;99.53
26635;BME280;14490;54.208;37.686;2022-08-19T00:27:50;99610.84;;;20.43;99.84
26635;BME280;14490;54.208;37.686;2022-08-19T00:30:18;99553.81;;;20.03;100.00
26635;BME280;14490;54.208;37.686;2022-08-19T00:32:45;99610.31;;;20.25;100.00
26635;BME280;14490;54.208;37.686;2022-08-19T00:35:13;99593.75;;;20.04;100.00
26635;BME280;14490;54.208;37.686;2022-08-19T00:37:42;99580.16;;;19.73;100.00
26635;BME280;14490;54.208;37.686;2022-08-19T00:40:11;99567.16;;;19.52;100.00
26635;BME280;14490;54.208;37.686;2022-08-19T00:42:39;99629.56;;;19.63;100.00
26635;BME280;14490;54.208;37.686;2022-08-19T00:45:12;99608.75;;;19.24;100.00
26635;BME280;14490;54.208;37.686;2022-08-19T00:47:43;99600.16;;;18.96;100.00
26635;BME280;14490;54.208;37.686;2022-08-19T00:50:13;99642.06;;;19.11;100.00
26635;BME280;14490;54.208;37.686;2022-08-19T00:52:48;99648.91;;;18.91;100.00
26635;BME280;14490;54.208;37.686;2022-08-19T00:55:19;99648.63;;;18.70;100.00
26635;BME280;14490;54.208;37.686;2022-08-19T00:57:52;99653.75;;;18.65;100.00
26635;BME280;14490;54.208;37.686;2022-08-19T01:00:24;99604.03;;;18.22;100.00
26635;BME280;14490;54.208;37.686;2022-08-19T01:02:53;99665.50;;;18.41;100.00
26635;BME280;14490;54.208;37.686;2022-08-19T01:05:24;99660.91;;;18.25;100.00
26635;BME280;14490;54.208;37.686;2022-08-19T01:07:56;99671.09;;;18.15;100.00
26635;BME280;14490;54.208;37.686;2022-08-19T01:10:28;99646.94;;;17.96;100.00
26635;BME280;14490;54.208;37.686;2022-08-19T01:12:57;99673.84;;;18.07;100.00
26635;BME280;14490;54.208;37.686;2022-08-19T01:15:30;99611.31;;;17.65;100.00
26635;BME280;14490;54.208;37.686;2022-08-19T01:18:02;99612.53;;;17.63;100.00
26635;BME280;14490;54.208;37.686;2022-08-19T01:20:35;99678.56;;;17.97;100.00
26635;BME280;14490;54.208;37.686;2022-08-19T01:23:04;99675.66;;;17.90;100.00
26635;BME280;14490;54.208;37.686;2022-08-19T01:25:35;99667.31;;;17.76;100.00
26635;BME280;14490;54.208;37.686;2022-08-19T01:28:07;99682.28;;;17.80;100.00
26635;BME280;14490;54.208;37.686;2022-08-19T01:30:35;99627.06;;;17.45;100.00
26635;BME280;14490;54.208;37.686;2022-08-19T01:33:03;99609.31;;;17.25;100.00
26635;BME280;14490;54.208;37.686;2022-08-19T01:35:31;99679.91;;;17.77;100.00
26635;BME280;14490;54.208;37.686;2022-08-19T01:38:01;99674.13;;;17.80;100.00
26635;BME280;14490;54.208;37.686;2022-08-19T01:40:37;99659.13;;;17.68;100.00
26635;BME280;14490;54.208;37.686;2022-08-19T01:43:07;99644.13;;;17.64;100.00
26635;BME280;14490;54.208;37.686;2022-08-19T01:45:36;99623.22;;;17.56;100.00
26635;BME280;14490;54.208;37.686;2022-08-19T01:48:06;99631.91;;;17.68;100.00
26635;BME280;14490;54.208;37.686;2022-08-19T01:50:35;99597.31;;;17.44;100.00
26635;BME280;14490;54.208;37.686;2022-08-19T01:53:06;99664.28;;;17.87;100.00
26635;BME280;14490;54.208;37.686;2022-08-19T01:55:36;99655.94;;;17.88;100.00
26635;BME280;14490;54.208;37.686;2022-08-19T01:58:08;99653.88;;;17.90;100.00
26635;BME280;14490;54.208;37.686;2022-08-19T02:00:39;99630.72;;;17.78;100.00
26635;BME280;14490;54.208;37.686;2022-08-19T02:03:08;99624.59;;;17.76;100.00
26635;BME280;14490;54.208;37.686;2022-08-19T02:05:37;99570.09;;;17.44;100.00
26635;BME280;14490;54.208;37.686;2022-08-19T02:08:05;99592.75;;;17.61;100.00
26635;BME280;14490;54.208;37.686;2022-08-19T02:10:33;99581.84;;;17.53;100.00
26635;BME280;14490;54.208;37.686;2022-08-19T02:13:02;99610.66;;;17.71;100.00
26635;BME280;14490;54.208;37.686;2022-08-19T02:15:29;99629.56;;;17.89;100.00
26635;BME280;14490;54.208;37.686;2022-08-19T02:17:57;99618.50;;;17.82;100.00
26635;BME280;14490;54.208;37.686;2022-08-19T02:20:25;99636.00;;;17.88;100.00
26635;BME280;14490;54.208;37.686;2022-08-19T02:22:53;99612.84;;;17.68;100.00
26635;BME280;14490;54.208;37.686;2022-08-19T02:25:20;99657.31;;;17.92;100.00
26635;BME280;14490;54.208;37.686;2022-08-19T02:27:48;99605.69;;;17.59;100.00
26635;BME280;14490;54.208;37.686;2022-08-19T02:30:17;99650.31;;;17.74;100.00
26635;BME280;14490;54.208;37.686;2022-08-19T02:32:46;99617.44;;;17.59;100.00
26635;BME280;14490;54.208;37.686;2022-08-19T02:35:14;99667.16;;;17.85;100.00
26635;BME280;14490;54.208;37.686;2022-08-19T02:37:42;99646.03;;;17.71;100.00
26635;BME280;14490;54.208;37.686;2022-08-19T02:40:28;99648.25;;;17.68;100.00
26635;BME280;14490;54.208;37.686;2022-08-19T02:42:59;99660.19;;;17.83;100.00
26635;BME280;14490;54.208;37.686;2022-08-19T02:45:34;99670.41;;;17.89;100.00
26635;BME280;14490;54.208;37.686;2022-08-19T02:48:02;99632.91;;;17.59;100.00
26635;BME280;14490;54.208;37.686;2022-08-19T02:50:31;99656.09;;;17.79;100.00
26635;BME280;14490;54.208;37.686;2022-08-19T02:52:59;99612.16;;;17.58;100.00
26635;BME280;14490;54.208;37.686;2022-08-19T02:55:28;99543.28;;;16.99;100.00
26635;BME280;14490;54.208;37.686;2022-08-19T02:57:56;99629.88;;;17.70;100.00
26635;BME280;14490;54.208;37.686;2022-08-19T03:00:23;99637.88;;;17.71;100.00
26635;BME280;14490;54.208;37.686;2022-08-19T03:02:53;99626.13;;;17.71;100.00
26635;BME280;14490;54.208;37.686;2022-08-19T03:05:21;99661.22;;;17.98;100.00
26635;BME280;14490;54.208;37.686;2022-08-19T03:07:49;99641.50;;;17.96;100.00
26635;BME280;14490;54.208;37.686;2022-08-19T03:10:16;99632.63;;;17.86;100.00
26635;BME280;14490;54.208;37.686;2022-08-19T03:12:44;99626.00;;;17.80;100.00
26635;BME280;14490;54.208;37.686;2022-08-19T03:15:12;99667.38;;;18.08;100.00
26635;BME280;14490;54.208;37.686;2022-08-19T03:17:40;99629.56;;;17.97;100.00
26635;BME280;14490;54.208;37.686;2022-08-19T03:20:10;99638.78;;;17.96;100.00
26635;BME280;14490;54.208;37.686;2022-08-19T03:22:38;99637.06;;;17.95;100.00
26635;BME280;14490;54.208;37.686;2022-08-19T03:25:06;99674.88;;;18.14;100.00
26635;BME280;14490;54.208;37.686;2022-08-19T03:27:34;99665.31;;;18.10;100.00
26635;BME280;14490;54.208;37.686;2022-08-19T03:30:02;99671.47;;;18.20;100.00
26635;BME280;14490;54.208;37.686;2022-08-19T03:32:31;99660.91;;;18.17;100.00
26635;BME280;14490;54.208;37.686;2022-08-19T03:34:59;99669.09;;;18.17;100.00
26635;BME280;14490;54.208;37.686;2022-08-19T03:37:29;99660.72;;;18.19;100.00
26635;BME280;14490;54.208;37.686;2022-08-19T03:39:57;99650.34;;;18.14;100.00
26635;BME280;14490;54.208;37.686;2022-08-19T03:42:25;99671.13;;;18.39;100.00
26635;BME280;14490;54.208;37.686;2022-08-19T03:44:53;99652.75;;;18.17;100.00
26635;BME280;14490;54.208;37.686;2022-08-19T03:47:20;99669.78;;;18.35;100.00
26635;BME280;14490;54.208;37.686;2022-08-19T03:49:48;99635.03;;;18.29;100.00
26635;BME280;14490;54.208;37.686;2022-08-19T03:52:16;99671.47;;;18.44;100.00
26635;BME280;14490;54.208;37.686;2022-08-19T03:54:45;99660.06;;;18.25;100.00
26635;BME280;14490;54.208;37.686;2022-08-19T03:57:13;99660.38;;;18.06;100.00
26635;BME280;14490;54.208;37.686;2022-08-19T03:59:40;99691.41;;;18.29;100.00
26635;BME280;14490;54.208;37.686;2022-08-19T04:02:11;99693.78;;;18.40;100.00
26635;BME280;14490;54.208;37.686;2022-08-19T04:04:42;99698.22;;;18.33;100.00
26635;BME280;14490;54.208;37.686;2022-08-19T04:07:12;99687.97;;;18.43;100.00
26635;BME280;14490;54.208;37.686;2022-08-19T04:09:41;99700.41;;;18.45;100.00
26635;BME280;14490;54.208;37.686;2022-08-19T04:12:11;99639.09;;;18.01;100.00
26635;BME280;14490;54.208;37.686;2022-08-19T04:14:38;99686.78;;;18.45;100.00
26635;BME280;14490;54.208;37.686;2022-08-19T04:17:06;99659.56;;;18.29;100.00
26635;BME280;14490;54.208;37.686;2022-08-19T04:19:35;99666.53;;;18.40;100.00
26635;BME280;14490;54.208;37.686;2022-08-19T04:22:04;99687.81;;;18.36;100.00
26635;BME280;14490;54.208;37.686;2022-08-19T04:24:33;99685.44;;;18.25;100.00
26635;BME280;14490;54.208;37.686;2022-08-19T04:27:01;99636.19;;;18.02;100.00
26635;BME280;14490;54.208;37.686;2022-08-19T04:29:33;99688.69;;;18.21;100.00
26635;BME280;14490;54.208;37.686;2022-08-19T04:32:01;99685.44;;;18.25;100.00
26635;BME280;14490;54.208;37.686;2022-08-19T04:34:31;99625.13;;;17.88;100.00
26635;BME280;14490;54.208;37.686;2022-08-19T04:36:58;99681.66;;;18.18;100.00
26635;BME280;14490;54.208;37.686;2022-08-19T04:39:29;99662.28;;;18.05;100.00
26635;BME280;14490;54.208;37.686;2022-08-19T04:42:16;99684.06;;;18.29;100.00
26635;BME280;14490;54.208;37.686;2022-08-19T04:45:03;99696.50;;;18.32;100.00
26635;BME280;14490;54.208;37.686;2022-08-19T04:47:32;99673.66;;;18.25;100.00
26635;BME280;14490;54.208;37.686;2022-08-19T04:49:59;99684.59;;;18.41;100.00
26635;BME280;14490;54.208;37.686;2022-08-19T04:52:27;99672.34;;;18.45;100.00
26635;BME280;14490;54.208;37.686;2022-08-19T04:54:57;99664.63;;;18.48;100.00
26635;BME280;14490;54.208;37.686;2022-08-19T04:57:25;99680.69;;;18.68;100.00
26635;BME280;14490;54.208;37.686;2022-08-19T04:59:54;99678.63;;;18.78;100.00
26635;BME280;14490;54.208;37.686;2022-08-19T05:02:23;99595.66;;;18.40;100.00
26635;BME280;14490;54.208;37.686;2022-08-19T05:04:51;99674.31;;;18.99;100.00
26635;BME280;14490;54.208;37.686;2022-08-19T05:07:25;99654.09;;;18.78;100.00
26635;BME280;14490;54.208;37.686;2022-08-19T05:09:53;99633.97;;;18.71;100.00
26635;BME280;14490;54.208;37.686;2022-08-19T05:12:21;99676.31;;;19.14;100.00
26635;BME280;14490;54.208;37.686;2022-08-19T05:14:48;99661.16;;;19.11;100.00
26635;BME280;14490;54.208;37.686;2022-08-19T05:17:17;99636.59;;;19.03;100.00
26635;BME280;14490;54.208;37.686;2022-08-19T05:19:46;99668.88;;;19.38;100.00
26635;BME280;14490;54.208;37.686;2022-08-19T05:22:47;99631.88;;;19.44;100.00
26635;BME280;14490;54.208;37.686;2022-08-19T05:25:18;99661.59;;;19.70;100.00
26635;BME280;14490;54.208;37.686;2022-08-19T05:27:47;99650.91;;;19.91;100.00
26635;BME280;14490;54.208;37.686;2022-08-19T05:30:16;99640.25;;;19.96;100.00
26635;BME280;14490;54.208;37.686;2022-08-19T05:32:44;99628.00;;;20.14;100.00
26635;BME280;14490;54.208;37.686;2022-08-19T05:35:12;99599.81;;;20.14;100.00
26635;BME280;14490;54.208;37.686;2022-08-19T05:37:40;99630.94;;;20.36;100.00
26635;BME280;14490;54.208;37.686;2022-08-19T05:40:09;99624.22;;;20.38;100.00
26635;BME280;14490;54.208;37.686;2022-08-19T05:42:40;99608.19;;;20.35;100.00
26635;BME280;14490;54.208;37.686;2022-08-19T05:45:09;99595.00;;;20.39;100.00
26635;BME280;14490;54.208;37.686;2022-08-19T05:47:38;99495.69;;;19.72;100.00
26635;BME280;14490;54.208;37.686;2022-08-19T05:50:06;99628.03;;;20.52;100.00
26635;BME280;14490;54.208;37.686;2022-08-19T05:52:37;99593.31;;;20.52;100.00
26635;BME280;14490;54.208;37.686;2022-08-19T05:55:09;99633.81;;;20.57;100.00
26635;BME280;14490;54.208;37.686;2022-08-19T05:57:40;99616.81;;;20.47;100.00
26635;BME280;14490;54.208;37.686;2022-08-19T06:00:11;99449.34;;;19.41;100.00
26635;BME280;14490;54.208;37.686;2022-08-19T06:02:40;99572.25;;;20.24;100.00
26635;BME280;14490;54.208;37.686;2022-08-19T06:05:08;99596.00;;;20.60;100.00
26635;BME280;14490;54.208;37.686;2022-08-19T06:07:39;99614.41;;;20.81;100.00
26635;BME280;14490;54.208;37.686;2022-08-19T06:10:09;99588.06;;;20.65;100.00
26635;BME280;14490;54.208;37.686;2022-08-19T06:12:38;99607.59;;;20.92;100.00
26635;BME280;14490;54.208;37.686;2022-08-19T06:15:08;99588.66;;;20.76;100.00
26635;BME280;14490;54.208;37.686;2022-08-19T06:17:37;99619.78;;;20.75;100.00
26635;BME280;14490;54.208;37.686;2022-08-19T06:20:09;99601.84;;;20.87;99.48
26635;BME280;14490;54.208;37.686;2022-08-19T06:22:42;99598.25;;;20.71;96.47
26635;BME280;14490;54.208;37.686;2022-08-19T06:25:11;99604.97;;;20.69;96.88
26635;BME280;14490;54.208;37.686;2022-08-19T06:27:40;99590.16;;;20.63;96.86
26635;BME280;14490;54.208;37.686;2022-08-19T06:30:09;99611.47;;;20.83;96.49
26635;BME280;14490;54.208;37.686;2022-08-19T06:32:37;99608.72;;;20.83;96.89
26635;BME280;14490;54.208;37.686;2022-08-19T06:35:06;99584.09;;;20.83;96.51
26635;BME280;14490;54.208;37.686;2022-08-19T06:37:36;99593.66;;;20.87;95.77
26635;BME280;14490;54.208;37.686;2022-08-19T06:40:07;99612.63;;;21.03;94.68
26635;BME280;14490;54.208;37.686;2022-08-19T06:42:36;99573.34;;;20.96;94.02
26635;BME280;14490;54.208;37.686;2022-08-19T06:45:05;99572.03;;;20.92;93.60
26635;BME280;14490;54.208;37.686;2022-08-19T06:47:34;99590.53;;;21.19;93.37
26635;BME280;14490;54.208;37.686;2022-08-19T06:50:02;99585.00;;;21.12;91.38
26635;BME280;14490;54.208;37.686;2022-08-19T06:52:31;99602.69;;;21.31;91.53
26635;BME280;14490;54.208;37.686;2022-08-19T06:55:00;99609.84;;;21.47;91.15
26635;BME280;14490;54.208;37.686;2022-08-19T06:57:30;99580.53;;;21.26;90.59
26635;BME280;14490;54.208;37.686;2022-08-19T06:59:58;99586.09;;;21.33;90.43
26635;BME280;14490;54.208;37.686;2022-08-19T07:02:26;99578.00;;;21.24;90.07
26635;BME280;14490;54.208;37.686;2022-08-19T07:04:54;99600.28;;;21.57;89.97
26635;BME280;14490;54.208;37.686;2022-08-19T07:07:23;99565.81;;;21.27;89.03
26635;BME280;14490;54.208;37.686;2022-08-19T07:09:51;99600.38;;;21.49;89.36
26635;BME280;14490;54.208;37.686;2022-08-19T07:12:19;99602.69;;;21.46;89.89
26635;BME280;14490;54.208;37.686;2022-08-19T07:14:48;99611.25;;;21.57;90.04
26635;BME280;14490;54.208;37.686;2022-08-19T07:17:16;99526.72;;;21.04;90.07
26635;BME280;14490;54.208;37.686;2022-08-19T07:19:45;99613.94;;;21.36;90.96
26635;BME280;14490;54.208;37.686;2022-08-19T07:22:13;99633.53;;;21.54;91.01
26635;BME280;14490;54.208;37.686;2022-08-19T07:24:41;99632.00;;;21.66;90.60
26635;BME280;14490;54.208;37.686;2022-08-19T07:27:09;99633.91;;;21.87;89.75
26635;BME280;14490;54.208;37.686;2022-08-19T07:29:37;99639.66;;;22.07;89.06
26635;BME280;14490;54.208;37.686;2022-08-19T07:32:06;99658.50;;;22.38;88.24
26635;BME280;14490;54.208;37.686;2022-08-19T07:34:34;99650.44;;;22.57;87.15
26635;BME280;14490;54.208;37.686;2022-08-19T07:37:03;99648.78;;;22.84;86.00
26635;BME280;14490;54.208;37.686;2022-08-19T07:39:34;99639.84;;;23.03;84.35
26635;BME280;14490;54.208;37.686;2022-08-19T07:42:06;99639.09;;;23.16;83.27
26635;BME280;14490;54.208;37.686;2022-08-19T07:44:36;99613.41;;;22.96;82.51
26635;BME280;14490;54.208;37.686;2022-08-19T07:47:06;99642.47;;;23.18;81.94
26635;BME280;14490;54.208;37.686;2022-08-19T07:49:33;99643.06;;;23.13;81.63
26635;BME280;14490;54.208;37.686;2022-08-19T07:52:04;99616.41;;;23.07;81.48
26635;BME280;14490;54.208;37.686;2022-08-19T07:54:36;99573.53;;;22.44;81.85
26635;BME280;14490;54.208;37.686;2022-08-19T07:57:05;99614.69;;;22.44;83.11
26635;BME280;14490;54.208;37.686;2022-08-19T07:59:33;99616.25;;;22.32;84.15
26635;BME280;14490;54.208;37.686;2022-08-19T08:02:02;99621.50;;;22.06;86.05
26635;BME280;14490;54.208;37.686;2022-08-19T08:04:31;99627.13;;;22.19;86.27
26635;BME280;14490;54.208;37.686;2022-08-19T08:07:16;99616.66;;;22.29;85.72
26635;BME280;14490;54.208;37.686;2022-08-19T08:10:04;99644.72;;;22.52;84.73
26635;BME280;14490;54.208;37.686;2022-08-19T08:12:35;99641.59;;;22.55;85.04
26635;BME280;14490;54.208;37.686;2022-08-19T08:15:09;99639.88;;;22.54;84.02
26635;BME280;14490;54.208;37.686;2022-08-19T08:17:42;99448.34;;;21.32;83.17
26635;BME280;14490;54.208;37.686;2022-08-19T08:20:12;99640.25;;;22.72;82.82
26635;BME280;14490;54.208;37.686;2022-08-19T08:22:43;99650.16;;;22.95;81.83
26635;BME280;14490;54.208;37.686;2022-08-19T08:25:43;99650.78;;;22.97;81.04
26635;BME280;14490;54.208;37.686;2022-08-19T08:28:10;99638.56;;;22.71;80.52
26635;BME280;14490;54.208;37.686;2022-08-19T08:30:38;99660.06;;;22.68;80.45
26635;BME280;14490;54.208;37.686;2022-08-19T08:33:08;99666.06;;;22.57;80.85
26635;BME280;14490;54.208;37.686;2022-08-19T08:35:37;99678.75;;;22.37;81.84
26635;BME280;14490;54.208;37.686;2022-08-19T08:38:07;99614.91;;;21.86;83.97
26635;BME280;14490;54.208;37.686;2022-08-19T08:40:43;99696.03;;;21.65;92.21
26635;BME280;14490;54.208;37.686;2022-08-19T08:43:22;99649.31;;;20.79;97.65
26635;BME280;14490;54.208;37.686;2022-08-19T08:46:03;99690.44;;;20.48;100.00
26635;BME280;14490;54.208;37.686;2022-08-19T08:48:37;99615.56;;;19.58;100.00
26635;BME280;14490;54.208;37.686;2022-08-19T08:51:12;99704.22;;;19.79;100.00
26635;BME280;14490;54.208;37.686;2022-08-19T08:53:44;99719.81;;;19.62;100.00
26635;BME280;14490;54.208;37.686;2022-08-19T08:56:12;99676.81;;;19.09;100.00
26635;BME280;14490;54.208;37.686;2022-08-19T08:58:46;99705.78;;;19.18;100.00
26635;BME280;14490;54.208;37.686;2022-08-19T09:01:17;99705.84;;;19.02;100.00
26635;BME280;14490;54.208;37.686;2022-08-19T09:03:46;99734.47;;;19.06;100.00
26635;BME280;14490;54.208;37.686;2022-08-19T09:06:23;99701.28;;;18.78;100.00
26635;BME280;14490;54.208;37.686;2022-08-19T09:09:00;99718.81;;;18.76;100.00
26635;BME280;14490;54.208;37.686;2022-08-19T09:11:43;99653.59;;;18.26;100.00
26635;BME280;14490;54.208;37.686;2022-08-19T09:14:28;99746.09;;;18.68;100.00
26635;BME280;14490;54.208;37.686;2022-08-19T09:17:00;99721.19;;;18.46;100.00
26635;BME280;14490;54.208;37.686;2022-08-19T09:19:29;99731.63;;;18.51;100.00
26635;BME280;14490;54.208;37.686;2022-08-19T09:21:59;99728.19;;;18.41;100.00
26635;BME280;14490;54.208;37.686;2022-08-19T09:24:27;99692.72;;;18.00;100.00
26635;BME280;14490;54.208;37.686;2022-08-19T09:26:55;99737.19;;;18.25;100.00
26635;BME280;14490;54.208;37.686;2022-08-19T09:29:23;99725.97;;;18.20;100.00
26635;BME280;14490;54.208;37.686;2022-08-19T09:31:50;99644.19;;;17.72;100.00
26635;BME280;14490;54.208;37.686;2022-08-19T09:34:19;99689.50;;;18.05;100.00
26635;BME280;14490;54.208;37.686;2022-08-19T09:36:47;99688.84;;;18.11;100.00
26635;BME280;14490;54.208;37.686;2022-08-19T09:39:20;99697.34;;;18.24;100.00
26635;BME280;14490;54.208;37.686;2022-08-19T09:41:48;99686.09;;;18.27;100.00
26635;BME280;14490;54.208;37.686;2022-08-19T09:44:16;99705.72;;;18.47;100.00
26635;BME280;14490;54.208;37.686;2022-08-19T09:46:46;99709.31;;;18.55;100.00
26635;BME280;14490;54.208;37.686;2022-08-19T09:49:14;99679.66;;;18.44;100.00
26635;BME280;14490;54.208;37.686;2022-08-19T09:51:42;99673.53;;;18.59;100.00
26635;BME280;14490;54.208;37.686;2022-08-19T09:54:10;99654.97;;;18.54;100.00
26635;BME280;14490;54.208;37.686;2022-08-19T09:56:39;99662.47;;;18.60;100.00
26635;BME280;14490;54.208;37.686;2022-08-19T09:59:07;99715.22;;;18.91;100.00
26635;BME280;14490;54.208;37.686;2022-08-19T10:01:35;99674.88;;;18.71;100.00
26635;BME280;14490;54.208;37.686;2022-08-19T10:04:03;99713.19;;;18.93;100.00
26635;BME280;14490;54.208;37.686;2022-08-19T10:06:35;99697.81;;;19.00;100.00
26635;BME280;14490;54.208;37.686;2022-08-19T10:09:03;99684.72;;;18.96;100.00
26635;BME280;14490;54.208;37.686;2022-08-19T10:11:32;99655.56;;;18.88;100.00
26635;BME280;14490;54.208;37.686;2022-08-19T10:14:04;99700.31;;;19.18;100.00
26635;BME280;14490;54.208;37.686;2022-08-19T10:16:33;99701.19;;;19.27;100.00
26635;BME280;14490;54.208;37.686;2022-08-19T10:19:01;99691.06;;;19.35;100.00
26635;BME280;14490;54.208;37.686;2022-08-19T10:21:32;99691.41;;;19.48;100.00
26635;BME280;14490;54.208;37.686;2022-08-19T10:24:01;99691.16;;;19.66;100.00
26635;BME280;14490;54.208;37.686;2022-08-19T10:26:33;99697.34;;;19.91;100.00
26635;BME280;14490;54.208;37.686;2022-08-19T10:29:04;99693.69;;;19.98;100.00
26635;BME280;14490;54.208;37.686;2022-08-19T10:31:33;99669.66;;;19.94;100.00
26635;BME280;14490;54.208;37.686;2022-08-19T10:34:01;99687.75;;;20.17;100.00
26635;BME280;14490;54.208;37.686;2022-08-19T10:36:31;99624.41;;;19.91;100.00
26635;BME280;14490;54.208;37.686;2022-08-19T10:39:04;99678.28;;;20.28;100.00
26635;BME280;14490;54.208;37.686;2022-08-19T10:41:35;99686.91;;;20.40;100.00
26635;BME280;14490;54.208;37.686;2022-08-19T10:44:07;99684.66;;;20.43;100.00
26635;BME280;14490;54.208;37.686;2022-08-19T10:46:37;99675.25;;;20.46;100.00
26635;BME280;14490;54.208;37.686;2022-08-19T10:49:08;99681.50;;;20.54;100.00
26635;BME280;14490;54.208;37.686;2022-08-19T10:51:37;99691.63;;;20.68;100.00
26635;BME280;14490;54.208;37.686;2022-08-19T10:54:24;99629.03;;;20.36;100.00
26635;BME280;14490;54.208;37.686;2022-08-19T10:57:11;99684.28;;;20.69;100.00
26635;BME280;14490;54.208;37.686;2022-08-19T10:59:40;99665.75;;;20.56;100.00
26635;BME280;14490;54.208;37.686;2022-08-19T11:02:09;99693.34;;;20.69;100.00
26635;BME280;14490;54.208;37.686;2022-08-19T11:04:39;99706.69;;;20.64;100.00
26635;BME280;14490;54.208;37.686;2022-08-19T11:07:07;99662.50;;;20.38;100.00
26635;BME280;14490;54.208;37.686;2022-08-19T11:09:39;99633.09;;;20.40;100.00
26635;BME280;14490;54.208;37.686;2022-08-19T11:12:09;99690.78;;;20.83;100.00
26635;BME280;14490;54.208;37.686;2022-08-19T11:14:39;99633.13;;;20.55;100.00
26635;BME280;14490;54.208;37.686;2022-08-19T11:17:07;99694.34;;;21.06;100.00
26635;BME280;14490;54.208;37.686;2022-08-19T11:19:36;99595.66;;;20.41;100.00
26635;BME280;14490;54.208;37.686;2022-08-19T11:22:06;99689.19;;;21.11;100.00
26635;BME280;14490;54.208;37.686;2022-08-19T11:24:35;99638.28;;;20.87;99.90
26635;BME280;14490;54.208;37.686;2022-08-19T11:27:07;99718.06;;;21.13;100.00
26635;BME280;14490;54.208;37.686;2022-08-19T11:29:39;99707.97;;;21.14;100.00
26635;BME280;14490;54.208;37.686;2022-08-19T11:32:08;99720.91;;;21.20;100.00
26635;BME280;14490;54.208;37.686;2022-08-19T11:34:38;99682.31;;;20.92;100.00
26635;BME280;14490;54.208;37.686;2022-08-19T11:37:06;99584.84;;;20.25;100.00
26635;BME280;14490;54.208;37.686;2022-08-19T11:39:35;99647.38;;;20.50;100.00
26635;BME280;14490;54.208;37.686;2022-08-19T11:42:05;99710.41;;;20.71;100.00
26635;BME280;14490;54.208;37.686;2022-08-19T11:44:55;99674.78;;;20.42;100.00
26635;BME280;14490;54.208;37.686;2022-08-19T11:47:23;99691.84;;;20.44;100.00
26635;BME280;14490;54.208;37.686;2022-08-19T11:49:51;99714.56;;;20.45;100.00
26635;BME280;14490;54.208;37.686;2022-08-19T11:52:19;99715.09;;;20.40;100.00
26635;BME280;14490;54.208;37.686;2022-08-19T11:54:47;99700.84;;;20.30;100.00
26635;BME280;14490;54.208;37.686;2022-08-19T11:57:15;99714.69;;;20.29;100.00
26635;BME280;14490;54.208;37.686;2022-08-19T11:59:47;99671.34;;;20.17;100.00
26635;BME280;14490;54.208;37.686;2022-08-19T12:02:17;99714.53;;;20.22;100.00
26635;BME280;14490;54.208;37.686;2022-08-19T12:04:45;99689.97;;;19.91;100.00
26635;BME280;14490;54.208;37.686;2022-08-19T12:07:13;99663.03;;;19.57;100.00
26635;BME280;14490;54.208;37.686;2022-08-19T12:09:41;99666.16;;;19.46;100.00
26635;BME280;14490;54.208;37.686;2022-08-19T12:12:08;99708.09;;;19.53;100.00
26635;BME280;14490;54.208;37.686;2022-08-19T12:14:36;99727.22;;;19.37;100.00
26635;BME280;14490;54.208;37.686;2022-08-19T12:17:04;99661.19;;;18.95;100.00
26635;BME280;14490;54.208;37.686;2022-08-19T12:19:36;99696.59;;;19.19;100.00
26635;BME280;14490;54.208;37.686;2022-08-19T12:22:05;99676.69;;;19.02;100.00
26635;BME280;14490;54.208;37.686;2022-08-19T12:24:33;99695.19;;;19.31;100.00
26635;BME280;14490;54.208;37.686;2022-08-19T12:27:01;99691.25;;;19.42;100.00
26635;BME280;14490;54.208;37.686;2022-08-19T12:29:29;99670.94;;;19.44;100.00
26635;BME280;14490;54.208;37.686;2022-08-19T12:31:58;99696.56;;;19.74;100.00
26635;BME280;14490;54.208;37.686;2022-08-19T12:34:27;99700.59;;;19.86;100.00
26635;BME280;14490;54.208;37.686;2022-08-19T12:37:01;99691.16;;;19.97;100.00
26635;BME280;14490;54.208;37.686;2022-08-19T12:39:33;99683.53;;;20.07;100.00
26635;BME280;14490;54.208;37.686;2022-08-19T12:42:01;99681.06;;;20.20;100.00
26635;BME280;14490;54.208;37.686;2022-08-19T12:44:29;99679.50;;;20.26;100.00
26635;BME280;14490;54.208;37.686;2022-08-19T12:46:58;99674.78;;;20.42;100.00
26635;BME280;14490;54.208;37.686;2022-08-19T12:49:27;99673.09;;;20.56;100.00
26635;BME280;14490;54.208;37.686;2022-08-19T12:51:55;99679.66;;;20.69;100.00
26635;BME280;14490;54.208;37.686;2022-08-19T12:54:25;99659.56;;;20.62;100.00
26635;BME280;14490;54.208;37.686;2022-08-19T12:56:52;99698.94;;;20.91;100.00